sensor_id;sensor_type;location;lat;lon;timestamp;temperature;humidity
20803;DHT22;10562;-33.856;151.182;2022-09-27T00:00:26;18.60;99.90
20803;DHT22;10562;-33.856;151.182;2022-09-27T00:02:57;19.00;99.90
20803;DHT22;10562;-33.856;151.182;2022-09-27T00:05:28;19.40;99.90
20803;DHT22;10562;-33.856;151.182;2022-09-27T00:08:00;20.10;99.90
20803;DHT22;10562;-33.856;151.182;2022-09-27T00:10:31;20.10;99.90
20803;DHT22;10562;-33.856;151.182;2022-09-27T00:13:04;20.30;99.90
20803;DHT22;10562;-33.856;151.182;2022-09-27T00:15:34;20.60;99.90
20803;DHT22;10562;-33.856;151.182;2022-09-27T00:18:05;20.60;99.90
20803;DHT22;10562;-33.856;151.182;2022-09-27T00:20:36;20.60;99.90
20803;DHT22;10562;-33.856;151.182;2022-09-27T00:23:07;20.40;99.90
20803;DHT22;10562;-33.856;151.182;2022-09-27T00:25:37;20.50;99.90
20803;DHT22;10562;-33.856;151.182;2022-09-27T00:28:10;20.60;99.90
20803;DHT22;10562;-33.856;151.182;2022-09-27T00:30:42;20.60;99.90
20803;DHT22;10562;-33.856;151.182;2022-09-27T00:33:13;20.80;99.90
20803;DHT22;10562;-33.856;151.182;2022-09-27T00:35:44;21.00;99.90
20803;DHT22;10562;-33.856;151.182;2022-09-27T00:38:15;21.10;99.90
20803;DHT22;10562;-33.856;151.182;2022-09-27T00:40:46;21.10;99.90
20803;DHT22;10562;-33.856;151.182;2022-09-27T00:43:20;21.30;99.90
20803;DHT22;10562;-33.856;151.182;2022-09-27T00:45:53;21.20;99.90
20803;DHT22;10562;-33.856;151.182;2022-09-27T00:48:26;21.00;99.90
20803;DHT22;10562;-33.856;151.182;2022-09-27T00:51:02;20.90;99.90
20803;DHT22;10562;-33.856;151.182;2022-09-27T00:53:36;20.80;99.90
20803;DHT22;10562;-33.856;151.182;2022-09-27T00:56:11;20.90;99.90
20803;DHT22;10562;-33.856;151.182;2022-09-27T00:58:47;21.00;99.90
20803;DHT22;10562;-33.856;151.182;2022-09-27T01:01:19;21.00;99.90
20803;DHT22;10562;-33.856;151.182;2022-09-27T01:03:54;20.70;99.90
20803;DHT22;10562;-33.856;151.182;2022-09-27T01:06:26;20.60;99.90
20803;DHT22;10562;-33.856;151.182;2022-09-27T01:08:57;21.00;99.90
20803;DHT22;10562;-33.856;151.182;2022-09-27T01:11:38;21.50;99.90
20803;DHT22;10562;-33.856;151.182;2022-09-27T01:14:35;21.80;99.90
20803;DHT22;10562;-33.856;151.182;2022-09-27T01:17:17;21.70;99.90
20803;DHT22;10562;-33.856;151.182;2022-09-27T01:23:02;22.60;99.90
20803;DHT22;10562;-33.856;151.182;2022-09-27T01:25:52;23.00;99.90
20803;DHT22;10562;-33.856;151.182;2022-09-27T01:28:37;22.70;99.90
20803;DHT22;10562;-33.856;151.182;2022-09-27T01:31:20;22.90;99.90
20803;DHT22;10562;-33.856;151.182;2022-09-27T01:34:00;22.60;99.90
20803;DHT22;10562;-33.856;151.182;2022-09-27T01:36:38;22.90;99.90
20803;DHT22;10562;-33.856;151.182;2022-09-27T01:39:21;23.10;99.90
20803;DHT22;10562;-33.856;151.182;2022-09-27T01:42:03;23.40;99.90
20803;DHT22;10562;-33.856;151.182;2022-09-27T01:44:38;23.50;99.90
20803;DHT22;10562;-33.856;151.182;2022-09-27T01:47:16;23.50;99.90
20803;DHT22;10562;-33.856;151.182;2022-09-27T01:49:51;23.40;99.90
20803;DHT22;10562;-33.856;151.182;2022-09-27T01:52:25;23.70;99.90
20803;DHT22;10562;-33.856;151.182;2022-09-27T01:55:00;23.70;99.90
20803;DHT22;10562;-33.856;151.182;2022-09-27T01:57:36;23.70;99.90
20803;DHT22;10562;-33.856;151.182;2022-09-27T02:00:09;23.40;99.90
20803;DHT22;10562;-33.856;151.182;2022-09-27T02:02:45;23.50;99.90
20803;DHT22;10562;-33.856;151.182;2022-09-27T02:05:21;23.70;99.90
20803;DHT22;10562;-33.856;151.182;2022-09-27T02:07:56;24.10;99.90
20803;DHT22;10562;-33.856;151.182;2022-09-27T02:10:32;24.30;99.90
20803;DHT22;10562;-33.856;151.182;2022-09-27T02:13:10;24.70;99.90
20803;DHT22;10562;-33.856;151.182;2022-09-27T02:15:50;24.80;99.90
20803;DHT22;10562;-33.856;151.182;2022-09-27T02:18:28;24.60;99.90
20803;DHT22;10562;-33.856;151.182;2022-09-27T02:21:04;24.50;99.90
20803;DHT22;10562;-33.856;151.182;2022-09-27T02:23:39;23.90;99.90
20803;DHT22;10562;-33.856;151.182;2022-09-27T02:26:14;23.30;99.90
20803;DHT22;10562;-33.856;151.182;2022-09-27T02:28:50;23.50;99.90
20803;DHT22;10562;-33.856;151.182;2022-09-27T02:31:23;23.60;99.90
20803;DHT22;10562;-33.856;151.182;2022-09-27T02:33:59;23.70;99.90
20803;DHT22;10562;-33.856;151.182;2022-09-27T02:36:31;23.80;99.90
20803;DHT22;10562;-33.856;151.182;2022-09-27T02:39:02;23.80;99.90
20803;DHT22;10562;-33.856;151.182;2022-09-27T02:41:33;23.80;99.90
20803;DHT22;10562;-33.856;151.182;2022-09-27T02:44:06;23.90;99.90
20803;DHT22;10562;-33.856;151.182;2022-09-27T02:49:48;23.50;99.90
20803;DHT22;10562;-33.856;151.182;2022-09-27T02:52:26;23.30;99.90
20803;DHT22;10562;-33.856;151.182;2022-09-27T02:55:06;22.80;99.90
20803;DHT22;10562;-33.856;151.182;2022-09-27T02:57:50;22.70;99.90
20803;DHT22;10562;-33.856;151.182;2022-09-27T03:00:29;22.70;99.90
20803;DHT22;10562;-33.856;151.182;2022-09-27T03:03:04;22.80;99.90
20803;DHT22;10562;-33.856;151.182;2022-09-27T03:05:42;22.90;99.90
20803;DHT22;10562;-33.856;151.182;2022-09-27T03:08:15;22.90;99.90
20803;DHT22;10562;-33.856;151.182;2022-09-27T03:10:46;23.10;99.90
20803;DHT22;10562;-33.856;151.182;2022-09-27T03:13:17;23.00;99.90
20803;DHT22;10562;-33.856;151.182;2022-09-27T03:15:47;23.30;99.90
20803;DHT22;10562;-33.856;151.182;2022-09-27T03:18:18;23.30;99.90
20803;DHT22;10562;-33.856;151.182;2022-09-27T03:20:52;23.30;99.90
20803;DHT22;10562;-33.856;151.182;2022-09-27T03:23:23;23.30;99.90
20803;DHT22;10562;-33.856;151.182;2022-09-27T03:25:54;23.20;99.90
20803;DHT22;10562;-33.856;151.182;2022-09-27T03:28:25;23.30;99.90
20803;DHT22;10562;-33.856;151.182;2022-09-27T03:30:56;23.10;99.90
20803;DHT22;10562;-33.856;151.182;2022-09-27T03:33:27;23.20;99.90
20803;DHT22;10562;-33.856;151.182;2022-09-27T03:36:00;23.30;99.90
20803;DHT22;10562;-33.856;151.182;2022-09-27T03:38:30;23.60;99.90
20803;DHT22;10562;-33.856;151.182;2022-09-27T03:41:01;23.90;99.90
20803;DHT22;10562;-33.856;151.182;2022-09-27T03:43:32;24.10;99.90
20803;DHT22;10562;-33.856;151.182;2022-09-27T03:46:03;23.90;99.90
20803;DHT22;10562;-33.856;151.182;2022-09-27T03:48:34;23.70;99.90
20803;DHT22;10562;-33.856;151.182;2022-09-27T03:51:06;23.20;99.90
20803;DHT22;10562;-33.856;151.182;2022-09-27T03:53:39;23.00;99.90
20803;DHT22;10562;-33.856;151.182;2022-09-27T03:56:09;22.30;99.90
20803;DHT22;10562;-33.856;151.182;2022-09-27T03:58:41;21.90;99.90
20803;DHT22;10562;-33.856;151.182;2022-09-27T04:01:12;22.00;99.90
20803;DHT22;10562;-33.856;151.182;2022-09-27T04:03:42;22.10;99.90
20803;DHT22;10562;-33.856;151.182;2022-09-27T04:06:15;22.20;99.90
20803;DHT22;10562;-33.856;151.182;2022-09-27T04:08:49;22.20;99.90
20803;DHT22;10562;-33.856;151.182;2022-09-27T04:11:20;22.40;99.90
20803;DHT22;10562;-33.856;151.182;2022-09-27T04:13:51;22.70;99.90
20803;DHT22;10562;-33.856;151.182;2022-09-27T04:16:23;23.00;99.90
20803;DHT22;10562;-33.856;151.182;2022-09-27T04:18:54;23.10;99.90
20803;DHT22;10562;-33.856;151.182;2022-09-27T04:21:26;22.80;99.90
20803;DHT22;10562;-33.856;151.182;2022-09-27T04:23:57;22.60;99.90
20803;DHT22;10562;-33.856;151.182;2022-09-27T04:26:28;22.60;99.90
20803;DHT22;10562;-33.856;151.182;2022-09-27T04:28:59;22.50;99.90
20803;DHT22;10562;-33.856;151.182;2022-09-27T04:31:30;22.20;99.90
20803;DHT22;10562;-33.856;151.182;2022-09-27T04:34:00;22.00;99.90
20803;DHT22;10562;-33.856;151.182;2022-09-27T04:36:33;22.00;99.90
20803;DHT22;10562;-33.856;151.182;2022-09-27T04:39:04;22.10;99.90
20803;DHT22;10562;-33.856;151.182;2022-09-27T04:41:35;22.20;99.90
20803;DHT22;10562;-33.856;151.182;2022-09-27T04:44:06;22.30;99.90
20803;DHT22;10562;-33.856;151.182;2022-09-27T04:46:38;22.50;99.90
20803;DHT22;10562;-33.856;151.182;2022-09-27T04:49:08;22.80;99.90
20803;DHT22;10562;-33.856;151.182;2022-09-27T04:51:41;23.30;99.90
20803;DHT22;10562;-33.856;151.182;2022-09-27T04:54:12;23.10;99.90
20803;DHT22;10562;-33.856;151.182;2022-09-27T04:56:42;23.10;99.90
20803;DHT22;10562;-33.856;151.182;2022-09-27T04:59:15;23.20;99.90
20803;DHT22;10562;-33.856;151.182;2022-09-27T05:01:46;23.10;99.90
20803;DHT22;10562;-33.856;151.182;2022-09-27T05:04:17;23.00;99.90
20803;DHT22;10562;-33.856;151.182;2022-09-27T05:06:50;23.10;99.90
20803;DHT22;10562;-33.856;151.182;2022-09-27T05:09:21;22.80;99.90
20803;DHT22;10562;-33.856;151.182;2022-09-27T05:11:51;22.50;99.90
20803;DHT22;10562;-33.856;151.182;2022-09-27T05:14:22;22.10;99.90
20803;DHT22;10562;-33.856;151.182;2022-09-27T05:16:54;21.70;99.90
20803;DHT22;10562;-33.856;151.182;2022-09-27T05:19:24;21.50;99.90
20803;DHT22;10562;-33.856;151.182;2022-09-27T05:21:57;21.30;99.90
20803;DHT22;10562;-33.856;151.182;2022-09-27T05:24:28;21.20;99.90
20803;DHT22;10562;-33.856;151.182;2022-09-27T05:26:59;21.00;99.90
20803;DHT22;10562;-33.856;151.182;2022-09-27T05:29:31;21.10;99.90
20803;DHT22;10562;-33.856;151.182;2022-09-27T05:32:02;20.90;99.90
20803;DHT22;10562;-33.856;151.182;2022-09-27T05:34:33;20.90;99.90
20803;DHT22;10562;-33.856;151.182;2022-09-27T05:37:06;21.10;99.90
20803;DHT22;10562;-33.856;151.182;2022-09-27T05:39:37;21.90;99.90
20803;DHT22;10562;-33.856;151.182;2022-09-27T05:42:08;22.00;99.90
20803;DHT22;10562;-33.856;151.182;2022-09-27T05:44:39;21.90;99.90
20803;DHT22;10562;-33.856;151.182;2022-09-27T05:47:13;21.60;99.90
20803;DHT22;10562;-33.856;151.182;2022-09-27T05:49:44;21.30;99.90
20803;DHT22;10562;-33.856;151.182;2022-09-27T05:52:17;21.00;99.90
20803;DHT22;10562;-33.856;151.182;2022-09-27T05:54:48;20.70;99.90
20803;DHT22;10562;-33.856;151.182;2022-09-27T05:57:18;20.50;99.90
20803;DHT22;10562;-33.856;151.182;2022-09-27T05:59:49;20.40;99.90
20803;DHT22;10562;-33.856;151.182;2022-09-27T06:02:20;20.20;99.90
20803;DHT22;10562;-33.856;151.182;2022-09-27T06:04:51;20.10;99.90
20803;DHT22;10562;-33.856;151.182;2022-09-27T06:07:25;20.00;99.90
20803;DHT22;10562;-33.856;151.182;2022-09-27T06:09:56;19.90;99.90
20803;DHT22;10562;-33.856;151.182;2022-09-27T06:12:27;19.80;99.90
20803;DHT22;10562;-33.856;151.182;2022-09-27T06:14:58;19.80;99.90
20803;DHT22;10562;-33.856;151.182;2022-09-27T06:17:28;19.80;99.90
20803;DHT22;10562;-33.856;151.182;2022-09-27T06:19:59;19.70;99.90
20803;DHT22;10562;-33.856;151.182;2022-09-27T06:22:32;19.60;99.90
20803;DHT22;10562;-33.856;151.182;2022-09-27T06:25:03;19.50;99.90
20803;DHT22;10562;-33.856;151.182;2022-09-27T06:27:34;19.40;99.90
20803;DHT22;10562;-33.856;151.182;2022-09-27T06:30:05;19.40;99.90
20803;DHT22;10562;-33.856;151.182;2022-09-27T06:32:35;19.30;99.90
20803;DHT22;10562;-33.856;151.182;2022-09-27T06:35:06;19.30;99.90
20803;DHT22;10562;-33.856;151.182;2022-09-27T06:37:39;19.20;99.90
20803;DHT22;10562;-33.856;151.182;2022-09-27T06:40:10;19.20;99.90
20803;DHT22;10562;-33.856;151.182;2022-09-27T06:42:41;19.20;99.90
20803;DHT22;10562;-33.856;151.182;2022-09-27T06:45:12;19.10;99.90
20803;DHT22;10562;-33.856;151.182;2022-09-27T06:47:43;19.00;99.90
20803;DHT22;10562;-33.856;151.182;2022-09-27T06:50:14;18.90;99.90
20803;DHT22;10562;-33.856;151.182;2022-09-27T06:52:50;18.80;99.90
20803;DHT22;10562;-33.856;151.182;2022-09-27T06:55:21;18.80;99.90
20803;DHT22;10562;-33.856;151.182;2022-09-27T06:57:54;18.70;99.90
20803;DHT22;10562;-33.856;151.182;2022-09-27T07:00:41;18.60;99.90
20803;DHT22;10562;-33.856;151.182;2022-09-27T07:03:13;18.60;99.90
20803;DHT22;10562;-33.856;151.182;2022-09-27T07:05:52;18.60;99.90
20803;DHT22;10562;-33.856;151.182;2022-09-27T07:08:26;18.60;99.90
20803;DHT22;10562;-33.856;151.182;2022-09-27T07:11:02;18.60;99.90
20803;DHT22;10562;-33.856;151.182;2022-09-27T07:13:34;18.60;99.90
20803;DHT22;10562;-33.856;151.182;2022-09-27T07:16:11;18.50;99.90
20803;DHT22;10562;-33.856;151.182;2022-09-27T07:18:42;18.50;99.90
20803;DHT22;10562;-33.856;151.182;2022-09-27T07:21:13;18.50;99.90
20803;DHT22;10562;-33.856;151.182;2022-09-27T07:23:47;18.50;99.90
20803;DHT22;10562;-33.856;151.182;2022-09-27T07:26:18;18.40;99.90
20803;DHT22;10562;-33.856;151.182;2022-09-27T07:28:49;18.40;99.90
20803;DHT22;10562;-33.856;151.182;2022-09-27T07:31:20;18.40;99.90
20803;DHT22;10562;-33.856;151.182;2022-09-27T07:33:51;18.40;99.90
20803;DHT22;10562;-33.856;151.182;2022-09-27T07:36:21;18.40;99.90
20803;DHT22;10562;-33.856;151.182;2022-09-27T07:38:55;18.40;99.90
20803;DHT22;10562;-33.856;151.182;2022-09-27T07:41:28;18.40;99.90
20803;DHT22;10562;-33.856;151.182;2022-09-27T07:43:58;18.30;99.90
20803;DHT22;10562;-33.856;151.182;2022-09-27T07:46:30;18.40;99.90
20803;DHT22;10562;-33.856;151.182;2022-09-27T07:49:01;18.30;99.90
20803;DHT22;10562;-33.856;151.182;2022-09-27T07:51:32;18.20;99.90
20803;DHT22;10562;-33.856;151.182;2022-09-27T07:54:05;18.10;99.90
20803;DHT22;10562;-33.856;151.182;2022-09-27T07:56:35;18.00;99.90
20803;DHT22;10562;-33.856;151.182;2022-09-27T07:59:06;18.10;99.90
20803;DHT22;10562;-33.856;151.182;2022-09-27T08:01:37;17.90;99.90
20803;DHT22;10562;-33.856;151.182;2022-09-27T08:04:08;17.90;99.90
20803;DHT22;10562;-33.856;151.182;2022-09-27T08:06:39;17.80;99.90
20803;DHT22;10562;-33.856;151.182;2022-09-27T08:09:11;17.70;99.90
20803;DHT22;10562;-33.856;151.182;2022-09-27T08:11:42;17.70;99.90
20803;DHT22;10562;-33.856;151.182;2022-09-27T08:14:13;17.70;99.90
20803;DHT22;10562;-33.856;151.182;2022-09-27T08:16:45;17.70;99.90
20803;DHT22;10562;-33.856;151.182;2022-09-27T08:19:19;17.70;99.90
20803;DHT22;10562;-33.856;151.182;2022-09-27T08:21:51;17.70;99.90
20803;DHT22;10562;-33.856;151.182;2022-09-27T08:24:25;17.70;99.90
20803;DHT22;10562;-33.856;151.182;2022-09-27T08:26:56;17.50;99.90
20803;DHT22;10562;-33.856;151.182;2022-09-27T08:29:27;17.50;99.90
20803;DHT22;10562;-33.856;151.182;2022-09-27T08:31:57;17.40;99.90
20803;DHT22;10562;-33.856;151.182;2022-09-27T08:34:28;17.30;99.90
20803;DHT22;10562;-33.856;151.182;2022-09-27T08:36:59;17.20;99.90
20803;DHT22;10562;-33.856;151.182;2022-09-27T08:39:32;17.10;99.90
20803;DHT22;10562;-33.856;151.182;2022-09-27T08:42:09;17.10;99.90
20803;DHT22;10562;-33.856;151.182;2022-09-27T08:44:58;17.20;99.90
20803;DHT22;10562;-33.856;151.182;2022-09-27T08:47:34;17.20;99.90
20803;DHT22;10562;-33.856;151.182;2022-09-27T08:50:22;17.10;99.90
20803;DHT22;10562;-33.856;151.182;2022-09-27T08:52:57;17.10;99.90
20803;DHT22;10562;-33.856;151.182;2022-09-27T08:55:35;17.10;99.90
20803;DHT22;10562;-33.856;151.182;2022-09-27T08:58:13;17.00;99.90
20803;DHT22;10562;-33.856;151.182;2022-09-27T09:00:46;17.00;99.90
20803;DHT22;10562;-33.856;151.182;2022-09-27T09:03:20;17.00;99.90
20803;DHT22;10562;-33.856;151.182;2022-09-27T09:06:03;17.00;99.90
20803;DHT22;10562;-33.856;151.182;2022-09-27T09:08:43;17.10;99.90
20803;DHT22;10562;-33.856;151.182;2022-09-27T09:11:25;17.20;99.90
20803;DHT22;10562;-33.856;151.182;2022-09-27T09:14:45;17.10;99.90
20803;DHT22;10562;-33.856;151.182;2022-09-27T09:17:27;17.10;99.90
20803;DHT22;10562;-33.856;151.182;2022-09-27T09:20:15;17.10;99.90
20803;DHT22;10562;-33.856;151.182;2022-09-27T09:23:12;17.10;99.90
20803;DHT22;10562;-33.856;151.182;2022-09-27T09:25:49;17.20;99.90
20803;DHT22;10562;-33.856;151.182;2022-09-27T09:28:36;17.10;99.90
20803;DHT22;10562;-33.856;151.182;2022-09-27T09:31:14;17.10;99.90
20803;DHT22;10562;-33.856;151.182;2022-09-27T09:33:51;17.10;99.90
20803;DHT22;10562;-33.856;151.182;2022-09-27T09:36:27;17.10;99.90
20803;DHT22;10562;-33.856;151.182;2022-09-27T09:39:03;17.00;99.90
20803;DHT22;10562;-33.856;151.182;2022-09-27T09:41:37;17.00;99.90
20803;DHT22;10562;-33.856;151.182;2022-09-27T09:44:19;16.90;99.90
20803;DHT22;10562;-33.856;151.182;2022-09-27T09:46:54;16.90;99.90
20803;DHT22;10562;-33.856;151.182;2022-09-27T09:49:27;16.90;99.90
20803;DHT22;10562;-33.856;151.182;2022-09-27T09:52:01;16.90;99.90
20803;DHT22;10562;-33.856;151.182;2022-09-27T09:54:37;16.80;99.90
20803;DHT22;10562;-33.856;151.182;2022-09-27T09:57:14;16.80;99.90
20803;DHT22;10562;-33.856;151.182;2022-09-27T09:59:50;16.70;99.90
20803;DHT22;10562;-33.856;151.182;2022-09-27T10:02:27;16.60;99.90
20803;DHT22;10562;-33.856;151.182;2022-09-27T10:05:01;16.70;99.90
20803;DHT22;10562;-33.856;151.182;2022-09-27T10:07:33;16.70;99.90
20803;DHT22;10562;-33.856;151.182;2022-09-27T10:10:09;16.80;99.90
20803;DHT22;10562;-33.856;151.182;2022-09-27T10:12:43;16.80;99.90
20803;DHT22;10562;-33.856;151.182;2022-09-27T10:15:18;16.80;99.90
20803;DHT22;10562;-33.856;151.182;2022-09-27T10:17:50;16.80;99.90
20803;DHT22;10562;-33.856;151.182;2022-09-27T10:20:34;16.80;99.90
20803;DHT22;10562;-33.856;151.182;2022-09-27T10:23:10;16.80;99.90
20803;DHT22;10562;-33.856;151.182;2022-09-27T10:25:47;16.90;99.90
20803;DHT22;10562;-33.856;151.182;2022-09-27T10:28:35;16.90;99.90
20803;DHT22;10562;-33.856;151.182;2022-09-27T10:31:09;16.90;99.90
20803;DHT22;10562;-33.856;151.182;2022-09-27T10:33:53;16.90;99.90
20803;DHT22;10562;-33.856;151.182;2022-09-27T10:36:26;16.90;99.90
20803;DHT22;10562;-33.856;151.182;2022-09-27T10:38:58;17.00;99.90
20803;DHT22;10562;-33.856;151.182;2022-09-27T10:41:33;17.00;99.90
20803;DHT22;10562;-33.856;151.182;2022-09-27T10:44:23;17.10;99.90
20803;DHT22;10562;-33.856;151.182;2022-09-27T10:46:59;17.10;99.90
20803;DHT22;10562;-33.856;151.182;2022-09-27T10:49:31;17.10;99.90
20803;DHT22;10562;-33.856;151.182;2022-09-27T10:52:05;17.20;99.90
20803;DHT22;10562;-33.856;151.182;2022-09-27T10:54:38;17.20;99.90
20803;DHT22;10562;-33.856;151.182;2022-09-27T10:57:18;17.10;99.90
20803;DHT22;10562;-33.856;151.182;2022-09-27T10:59:53;17.10;99.90
20803;DHT22;10562;-33.856;151.182;2022-09-27T11:02:28;17.10;99.90
20803;DHT22;10562;-33.856;151.182;2022-09-27T11:05:06;17.10;99.90
20803;DHT22;10562;-33.856;151.182;2022-09-27T11:07:46;17.00;99.90
20803;DHT22;10562;-33.856;151.182;2022-09-27T11:10:25;17.10;99.90
20803;DHT22;10562;-33.856;151.182;2022-09-27T11:13:11;17.10;99.90
20803;DHT22;10562;-33.856;151.182;2022-09-27T11:15:59;17.20;99.90
20803;DHT22;10562;-33.856;151.182;2022-09-27T11:18:40;17.20;99.90
20803;DHT22;10562;-33.856;151.182;2022-09-27T11:21:21;17.10;99.90
20803;DHT22;10562;-33.856;151.182;2022-09-27T11:24:08;17.10;99.90
20803;DHT22;10562;-33.856;151.182;2022-09-27T11:26:52;17.10;99.90
20803;DHT22;10562;-33.856;151.182;2022-09-27T11:29:32;17.10;99.90
20803;DHT22;10562;-33.856;151.182;2022-09-27T11:32:18;17.10;99.90
20803;DHT22;10562;-33.856;151.182;2022-09-27T11:35:19;17.00;99.90
20803;DHT22;10562;-33.856;151.182;2022-09-27T11:37:59;16.90;99.90
20803;DHT22;10562;-33.856;151.182;2022-09-27T11:40:40;16.80;99.90
20803;DHT22;10562;-33.856;151.182;2022-09-27T11:43:25;16.70;99.90
20803;DHT22;10562;-33.856;151.182;2022-09-27T11:46:04;16.70;99.90
20803;DHT22;10562;-33.856;151.182;2022-09-27T11:48:58;16.60;99.90
20803;DHT22;10562;-33.856;151.182;2022-09-27T11:51:43;16.50;99.90
20803;DHT22;10562;-33.856;151.182;2022-09-27T11:54:29;16.40;99.90
20803;DHT22;10562;-33.856;151.182;2022-09-27T11:57:08;16.40;99.90
20803;DHT22;10562;-33.856;151.182;2022-09-27T12:00:09;16.30;99.90
20803;DHT22;10562;-33.856;151.182;2022-09-27T12:03:06;16.20;99.90
20803;DHT22;10562;-33.856;151.182;2022-09-27T12:05:52;16.20;99.90
20803;DHT22;10562;-33.856;151.182;2022-09-27T12:11:22;16.30;99.90
20803;DHT22;10562;-33.856;151.182;2022-09-27T12:13:58;16.30;99.90
20803;DHT22;10562;-33.856;151.182;2022-09-27T12:16:32;16.40;99.90
20803;DHT22;10562;-33.856;151.182;2022-09-27T12:19:04;16.50;99.90
20803;DHT22;10562;-33.856;151.182;2022-09-27T12:21:41;16.50;99.90
20803;DHT22;10562;-33.856;151.182;2022-09-27T12:24:19;16.60;99.90
20803;DHT22;10562;-33.856;151.182;2022-09-27T12:26:53;16.60;99.90
20803;DHT22;10562;-33.856;151.182;2022-09-27T12:29:28;16.70;99.90
20803;DHT22;10562;-33.856;151.182;2022-09-27T12:32:12;16.70;99.90
20803;DHT22;10562;-33.856;151.182;2022-09-27T12:34:50;16.70;99.90
20803;DHT22;10562;-33.856;151.182;2022-09-27T12:37:25;16.70;99.90
20803;DHT22;10562;-33.856;151.182;2022-09-27T12:40:02;16.70;99.90
20803;DHT22;10562;-33.856;151.182;2022-09-27T12:42:37;16.80;99.90
20803;DHT22;10562;-33.856;151.182;2022-09-27T12:45:12;16.90;99.90
20803;DHT22;10562;-33.856;151.182;2022-09-27T12:47:54;16.90;99.90
20803;DHT22;10562;-33.856;151.182;2022-09-27T12:50:31;17.00;99.90
20803;DHT22;10562;-33.856;151.182;2022-09-27T12:53:11;17.00;99.90
20803;DHT22;10562;-33.856;151.182;2022-09-27T12:59:01;17.10;99.90
20803;DHT22;10562;-33.856;151.182;2022-09-27T13:01:50;17.10;99.90
20803;DHT22;10562;-33.856;151.182;2022-09-27T13:04:39;17.10;99.90
20803;DHT22;10562;-33.856;151.182;2022-09-27T13:07:24;17.20;99.90
20803;DHT22;10562;-33.856;151.182;2022-09-27T13:10:19;17.30;99.90
20803;DHT22;10562;-33.856;151.182;2022-09-27T13:12:54;17.30;99.90
20803;DHT22;10562;-33.856;151.182;2022-09-27T13:15:32;17.30;99.90
20803;DHT22;10562;-33.856;151.182;2022-09-27T13:18:05;17.30;99.90
20803;DHT22;10562;-33.856;151.182;2022-09-27T13:20:41;17.30;99.90
20803;DHT22;10562;-33.856;151.182;2022-09-27T13:26:46;17.20;99.90
20803;DHT22;10562;-33.856;151.182;2022-09-27T13:29:30;17.30;99.90
20803;DHT22;10562;-33.856;151.182;2022-09-27T13:32:18;17.20;99.90
20803;DHT22;10562;-33.856;151.182;2022-09-27T13:34:51;17.10;99.90
20803;DHT22;10562;-33.856;151.182;2022-09-27T13:37:53;16.90;99.90
20803;DHT22;10562;-33.856;151.182;2022-09-27T13:40:30;16.80;99.90
20803;DHT22;10562;-33.856;151.182;2022-09-27T13:46:16;16.60;99.90
20803;DHT22;10562;-33.856;151.182;2022-09-27T13:48:54;16.50;99.90
20803;DHT22;10562;-33.856;151.182;2022-09-27T13:51:35;16.40;99.90
20803;DHT22;10562;-33.856;151.182;2022-09-27T13:54:37;16.40;99.90
20803;DHT22;10562;-33.856;151.182;2022-09-27T13:57:41;16.30;99.90
20803;DHT22;10562;-33.856;151.182;2022-09-27T14:00:13;16.30;99.90
20803;DHT22;10562;-33.856;151.182;2022-09-27T14:02:59;16.30;99.90
20803;DHT22;10562;-33.856;151.182;2022-09-27T14:05:37;16.20;99.90
20803;DHT22;10562;-33.856;151.182;2022-09-27T14:08:18;16.20;99.90
20803;DHT22;10562;-33.856;151.182;2022-09-27T14:10:49;16.20;99.90
20803;DHT22;10562;-33.856;151.182;2022-09-27T14:13:22;16.20;99.90
20803;DHT22;10562;-33.856;151.182;2022-09-27T14:15:54;16.30;99.90
20803;DHT22;10562;-33.856;151.182;2022-09-27T14:18:26;16.30;99.90
20803;DHT22;10562;-33.856;151.182;2022-09-27T14:21:13;16.30;99.90
20803;DHT22;10562;-33.856;151.182;2022-09-27T14:23:46;16.30;99.90
20803;DHT22;10562;-33.856;151.182;2022-09-27T14:26:23;16.30;99.90
20803;DHT22;10562;-33.856;151.182;2022-09-27T14:28:54;16.30;99.90
20803;DHT22;10562;-33.856;151.182;2022-09-27T14:31:25;16.30;99.90
20803;DHT22;10562;-33.856;151.182;2022-09-27T14:34:06;16.30;99.90
20803;DHT22;10562;-33.856;151.182;2022-09-27T14:36:39;16.40;99.90
20803;DHT22;10562;-33.856;151.182;2022-09-27T14:39:30;16.40;99.90
20803;DHT22;10562;-33.856;151.182;2022-09-27T14:42:16;16.50;99.90
20803;DHT22;10562;-33.856;151.182;2022-09-27T14:44:49;16.60;99.90
20803;DHT22;10562;-33.856;151.182;2022-09-27T14:47:21;16.60;99.90
20803;DHT22;10562;-33.856;151.182;2022-09-27T14:49:53;16.70;99.90
20803;DHT22;10562;-33.856;151.182;2022-09-27T14:52:28;16.70;99.90
20803;DHT22;10562;-33.856;151.182;2022-09-27T14:55:01;16.70;99.90
20803;DHT22;10562;-33.856;151.182;2022-09-27T14:57:32;16.70;99.90
20803;DHT22;10562;-33.856;151.182;2022-09-27T15:00:16;16.70;99.90
20803;DHT22;10562;-33.856;151.182;2022-09-27T15:02:48;16.70;99.90
20803;DHT22;10562;-33.856;151.182;2022-09-27T15:05:21;16.70;99.90
20803;DHT22;10562;-33.856;151.182;2022-09-27T15:07:54;16.70;99.90
20803;DHT22;10562;-33.856;151.182;2022-09-27T15:10:28;16.70;99.90
20803;DHT22;10562;-33.856;151.182;2022-09-27T15:13:00;16.70;99.90
20803;DHT22;10562;-33.856;151.182;2022-09-27T15:15:34;16.70;99.90
20803;DHT22;10562;-33.856;151.182;2022-09-27T15:18:30;16.70;99.90
20803;DHT22;10562;-33.856;151.182;2022-09-27T15:21:01;16.70;99.90
20803;DHT22;10562;-33.856;151.182;2022-09-27T15:23:38;16.50;99.90
20803;DHT22;10562;-33.856;151.182;2022-09-27T15:26:15;16.40;99.90
20803;DHT22;10562;-33.856;151.182;2022-09-27T15:28:48;16.40;99.90
20803;DHT22;10562;-33.856;151.182;2022-09-27T15:31:27;16.40;99.90
20803;DHT22;10562;-33.856;151.182;2022-09-27T15:33:59;16.30;99.90
20803;DHT22;10562;-33.856;151.182;2022-09-27T15:36:50;16.30;99.90
20803;DHT22;10562;-33.856;151.182;2022-09-27T15:39:27;16.20;99.90
20803;DHT22;10562;-33.856;151.182;2022-09-27T15:42:09;16.20;99.90
20803;DHT22;10562;-33.856;151.182;2022-09-27T15:44:45;16.10;99.90
20803;DHT22;10562;-33.856;151.182;2022-09-27T15:47:41;16.00;99.90
20803;DHT22;10562;-33.856;151.182;2022-09-27T15:50:34;16.00;99.90
20803;DHT22;10562;-33.856;151.182;2022-09-27T15:53:05;15.90;99.90
20803;DHT22;10562;-33.856;151.182;2022-09-27T15:55:40;15.90;99.90
20803;DHT22;10562;-33.856;151.182;2022-09-27T15:58:14;15.80;99.90